Time;durP1;ratioP1;P1;durP2;ratioP2;P2;SDS_P1;SDS_P2;PMS_P1;PMS_P2;Temp;Humidity;BMP_temperature;BMP_pressure;BME280_temperature;BME280_humidity;BME280_pressure;Samples;Min_cycle;Max_cycle;Signal;HPM_P1;HPM_P2
2022/05/12 00:01:33;;;;;;;;;7.25;2.50;;;;;30.70;100.00;101129.53;5022293;28;51011;-48
2022/05/12 00:04:17;;;;;;;;;6.00;3.50;;;;;30.70;100.00;101121.28;5006341;28;51102;-47
2022/05/12 00:07:02;;;;;;;;;4.00;4.00;;;;;30.69;100.00;101114.06;5018726;28;51435;-48
2022/05/12 00:09:46;;;;;;;;;7.00;5.00;;;;;30.68;100.00;101115.09;5010473;28;51197;-48
2022/05/12 00:12:31;;;;;;;;;5.50;4.75;;;;;30.68;100.00;101109.59;5010286;28;50983;-48
2022/05/12 00:15:23;;;;;;;;;5.25;3.50;;;;;30.68;100.00;101104.09;5002117;28;51048;-48
2022/05/12 00:18:08;;;;;;;;;7.75;4.75;;;;;30.66;100.00;101105.19;5019268;28;51140;-49
2022/05/12 00:20:53;;;;;;;;;5.50;2.75;;;;;30.63;100.00;101100.00;5002353;28;51409;-49
2022/05/12 00:23:38;;;;;;;;;5.75;3.50;;;;;30.64;100.00;101097.09;5003249;28;51169;-48
2022/05/12 00:26:26;;;;;;;;;6.50;3.75;;;;;30.65;100.00;101093.34;5006984;28;51120;-48
2022/05/12 00:29:11;;;;;;;;;5.00;4.50;;;;;30.64;100.00;101098.97;5021601;28;51299;-48
2022/05/12 00:31:56;;;;;;;;;6.75;4.00;;;;;30.66;100.00;101107.94;5021756;28;51089;-50
2022/05/12 00:34:40;;;;;;;;;8.00;5.00;;;;;30.67;100.00;101102.34;5021920;28;51494;-48
2022/05/12 00:37:25;;;;;;;;;7.00;4.75;;;;;30.69;100.00;101107.69;5010305;28;51140;-46
2022/05/12 00:40:10;;;;;;;;;6.25;4.00;;;;;30.67;100.00;101099.59;5001448;28;51178;-47
2022/05/12 00:42:56;;;;;;;;;4.75;3.50;;;;;30.62;100.00;101093.59;5007107;28;51103;-47
2022/05/12 00:45:42;;;;;;;;;4.75;3.25;;;;;30.66;100.00;101102.47;5019560;28;51050;-47
2022/05/12 00:48:26;;;;;;;;;2.00;2.00;;;;;30.63;100.00;101094.50;5020896;28;50995;-46
2022/05/12 00:51:15;;;;;;;;;6.75;4.25;;;;;30.61;100.00;101097.34;5013011;28;51223;-47
2022/05/12 00:54:03;;;;;;;;;2.75;2.75;;;;;30.61;100.00;101105.59;5016341;28;51075;-48
2022/05/12 00:56:49;;;;;;;;;4.25;3.00;;;;;30.63;100.00;101100.84;5006075;28;51150;-49
2022/05/12 00:59:34;;;;;;;;;2.50;2.50;;;;;30.64;100.00;101102.59;5018055;28;51147;-47
2022/05/12 01:02:20;;;;;;;;;7.00;4.00;;;;;30.61;100.00;101094.59;5016158;28;51090;-47
2022/05/12 01:05:05;;;;;;;;;5.00;2.75;;;;;30.59;100.00;101086.50;5020807;28;51544;-46
2022/05/12 01:07:51;;;;;;;;;4.00;3.50;;;;;30.65;100.00;101096.09;5014673;28;51207;-48
2022/05/12 01:10:37;;;;;;;;;8.00;3.00;;;;;30.65;100.00;101089.72;5001155;28;51339;-47
2022/05/12 01:13:22;;;;;;;;;4.50;3.75;;;;;30.64;100.00;101090.72;5001152;28;50978;-48
2022/05/12 01:16:06;;;;;;;;;3.75;1.75;;;;;30.64;100.00;101088.84;5001247;28;51069;-47
2022/05/12 01:18:51;;;;;;;;;6.00;3.50;;;;;30.65;100.00;101086.97;5020267;28;51108;-49
2022/05/12 01:21:35;;;;;;;;;3.50;2.00;;;;;30.62;100.00;101082.63;5020621;28;51148;-49
2022/05/12 01:24:23;;;;;;;;;4.00;3.00;;;;;30.61;100.00;101078.13;5004143;28;51150;-48
2022/05/12 01:27:20;;;;;;;;;3.25;2.75;;;;;30.60;100.00;101084.63;5020790;28;51065;-47
2022/05/12 01:30:05;;;;;;;;;3.75;2.00;;;;;30.58;100.00;101084.75;5020405;28;51531;-48
2022/05/12 01:32:50;;;;;;;;;6.00;2.50;;;;;30.59;100.00;101088.34;5020405;28;51173;-46
2022/05/12 01:35:35;;;;;;;;;2.75;2.75;;;;;30.60;100.00;101076.38;5020474;28;51799;-47
2022/05/12 01:38:20;;;;;;;;;4.25;2.00;;;;;30.60;100.00;101079.13;5020889;28;51155;-48
2022/05/12 01:41:05;;;;;;;;;2.75;2.50;;;;;30.50;100.00;101072.63;5019934;28;51195;-47
2022/05/12 01:43:50;;;;;;;;;5.00;3.75;;;;;30.56;100.00;101075.75;5020216;28;51209;-47
2022/05/12 01:46:34;;;;;;;;;3.50;3.50;;;;;30.57;100.00;101069.28;5014994;28;51132;-49
2022/05/12 01:49:18;;;;;;;;;4.00;3.00;;;;;30.59;100.00;101066.38;5020139;28;51092;-46
2022/05/12 01:52:04;;;;;;;;;3.25;3.00;;;;;30.60;100.00;101070.88;5015207;28;51220;-47
2022/05/12 01:54:49;;;;;;;;;3.25;2.25;;;;;30.54;100.00;101063.16;5003745;28;51306;-48
2022/05/12 01:57:33;;;;;;;;;2.75;2.25;;;;;30.43;100.00;101042.06;5013456;28;51165;-48
2022/05/12 02:00:22;;;;;;;;;6.25;4.75;;;;;30.54;100.00;101058.53;5015172;28;51078;-47
2022/05/12 02:03:07;;;;;;;;;3.75;2.00;;;;;30.52;100.00;101043.16;5019677;28;51153;-46
2022/05/12 02:05:51;;;;;;;;;4.00;3.00;;;;;30.53;100.00;101039.47;5019293;28;51231;-47
2022/05/12 02:08:35;;;;;;;;;4.00;3.50;;;;;30.50;100.00;101031.44;5019110;28;51166;-47
2022/05/12 02:11:20;;;;;;;;;4.50;3.25;;;;;30.53;100.00;101042.19;5003259;28;51770;-46
2022/05/12 02:14:05;;;;;;;;;4.75;1.75;;;;;30.55;100.00;101042.94;5018332;28;51066;-47
2022/05/12 02:16:50;;;;;;;;;2.25;2.00;;;;;30.56;100.00;101036.47;5020030;28;51026;-47
2022/05/12 02:19:34;;;;;;;;;7.25;3.25;;;;;30.53;100.00;101036.72;5014289;28;51145;-46
2022/05/12 02:22:18;;;;;;;;;4.00;3.00;;;;;30.57;100.00;101041.81;5020020;28;51066;-47
2022/05/12 02:25:04;;;;;;;;;4.75;3.00;;;;;30.63;100.00;101048.66;5009763;28;51189;-47
2022/05/12 02:27:51;;;;;;;;;6.50;4.75;;;;;30.64;100.00;101046.78;5016126;28;51208;-48
2022/05/12 02:30:35;;;;;;;;;4.50;4.00;;;;;30.68;100.00;101048.28;5019593;28;51509;-47
2022/05/12 02:33:21;;;;;;;;;7.50;3.75;;;;;30.70;100.00;101047.13;5016475;28;51134;-51
2022/05/12 02:36:06;;;;;;;;;7.50;4.25;;;;;30.69;100.00;101039.91;5018158;28;51039;-49
2022/05/12 02:38:51;;;;;;;;;5.75;4.50;;;;;30.71;100.00;101037.91;5019853;28;51146;-49
2022/05/12 02:41:35;;;;;;;;;3.00;3.00;;;;;30.71;100.00;101042.53;5019974;28;51146;-47
2022/05/12 02:44:19;;;;;;;;;5.75;3.50;;;;;30.71;100.00;101046.13;5019480;28;51527;-49
2022/05/12 02:47:07;;;;;;;;;3.25;2.75;;;;;30.73;100.00;101046.03;5013434;28;51178;-47
2022/05/12 02:49:51;;;;;;;;;5.25;2.00;;;;;30.75;100.00;101046.75;5000257;28;51087;-49
2022/05/12 02:52:36;;;;;;;;;5.50;2.75;;;;;30.63;100.00;101021.19;5016228;28;51177;-47
2022/05/12 02:55:20;;;;;;;;;7.00;3.75;;;;;30.78;100.00;101049.25;5019146;28;51388;-47
2022/05/12 02:58:05;;;;;;;;;5.75;3.50;;;;;30.81;100.00;101048.09;5001813;28;51041;-47
2022/05/12 03:00:52;;;;;;;;;9.75;4.25;;;;;30.84;100.00;101040.50;5010637;28;51163;-48
2022/05/12 03:03:36;;;;;;;;;4.25;3.00;;;;;30.85;100.00;101038.59;5015476;28;51101;-50
2022/05/12 03:06:20;;;;;;;;;4.00;1.50;;;;;30.87;100.00;101045.72;5019520;28;51152;-48
2022/05/12 03:09:05;;;;;;;;;4.00;1.75;;;;;30.86;100.00;101063.19;5019238;28;51198;-46
2022/05/12 03:11:50;;;;;;;;;3.00;2.25;;;;;30.88;100.00;101055.69;5003644;28;51194;-48
2022/05/12 03:14:34;;;;;;;;;2.25;2.25;;;;;30.89;100.00;101054.69;5018942;28;51383;-48
2022/05/12 03:17:19;;;;;;;;;6.75;3.50;;;;;30.91;100.00;101049.06;5013824;28;51189;-47
2022/05/12 03:20:06;;;;;;;;;5.50;4.00;;;;;30.89;100.00;101049.19;5014467;28;51473;-46
2022/05/12 03:22:51;;;;;;;;;6.25;4.50;;;;;30.83;100.00;101040.59;5020628;28;51097;-47
2022/05/12 03:25:36;;;;;;;;;3.25;3.00;;;;;30.87;100.00;101050.34;5016104;28;51345;-47
2022/05/12 03:28:22;;;;;;;;;4.75;2.25;;;;;30.85;100.00;101052.34;5006191;28;51086;-48
2022/05/12 03:31:08;;;;;;;;;5.75;3.50;;;;;30.79;100.00;101044.63;5023261;28;51078;-47
2022/05/12 03:33:52;;;;;;;;;2.75;2.75;;;;;30.84;100.00;101053.34;5013732;28;51086;-47
2022/05/12 03:36:39;;;;;;;;;3.00;3.00;;;;;30.86;100.00;101054.09;5020249;28;51061;-46
2022/05/12 03:39:24;;;;;;;;;3.50;3.50;;;;;30.90;100.00;101058.34;5017957;28;51180;-47
2022/05/12 03:42:15;;;;;;;;;5.00;3.00;;;;;30.89;100.00;101062.09;5003080;28;51099;-47
2022/05/12 03:45:00;;;;;;;;;5.50;3.75;;;;;30.88;100.00;101072.19;5005093;28;51103;-47
2022/05/12 03:47:48;;;;;;;;;4.25;3.50;;;;;30.90;100.00;101081.16;5018604;28;51187;-48
2022/05/12 03:50:33;;;;;;;;;3.75;3.75;;;;;30.90;100.00;101080.31;5022336;28;51292;-47
2022/05/12 03:53:17;;;;;;;;;2.00;2.00;;;;;30.92;100.00;101079.16;5022495;28;51024;-48
2022/05/12 03:56:04;;;;;;;;;4.75;3.25;;;;;30.86;100.00;101070.56;5022728;28;51157;-48
2022/05/12 03:58:49;;;;;;;;;4.00;3.75;;;;;30.95;100.00;101082.66;5022102;28;51110;-47
2022/05/12 04:01:34;;;;;;;;;6.75;3.50;;;;;30.86;100.00;101068.69;5005842;28;51182;-47
2022/05/12 04:04:18;;;;;;;;;6.25;3.75;;;;;30.93;100.00;101085.53;5019255;28;51201;-49
2022/05/12 04:07:03;;;;;;;;;9.25;4.75;;;;;30.92;100.00;101081.03;5007754;28;51597;-47
2022/05/12 04:09:49;;;;;;;;;8.75;8.00;;;;;30.91;100.00;101082.91;4998398;28;51526;-47
2022/05/12 04:12:33;;;;;;;;;7.00;4.00;;;;;30.91;100.00;101082.03;5007715;28;51123;-47
2022/05/12 04:15:19;;;;;;;;;2.75;2.75;;;;;30.90;100.00;101083.06;5005030;28;51270;-47
2022/05/12 04:18:05;;;;;;;;;3.00;3.00;;;;;30.90;100.00;101086.66;5002231;28;51193;-47
2022/05/12 04:20:52;;;;;;;;;5.75;3.75;;;;;30.86;100.00;101089.81;5018167;28;51137;-48
2022/05/12 04:23:38;;;;;;;;;3.75;3.25;;;;;30.86;100.00;101087.06;5001835;28;51549;-48
2022/05/12 04:26:22;;;;;;;;;6.50;2.50;;;;;30.86;100.00;101085.16;5001926;28;51174;-48
2022/05/12 04:29:07;;;;;;;;;4.75;4.75;;;;;30.87;100.00;101080.56;5002116;28;51187;-48
2022/05/12 04:31:52;;;;;;;;;6.75;4.25;;;;;30.85;100.00;101075.19;5014960;28;51097;-48
2022/05/12 04:38:00;;;;;;;;;4.25;3.75;;;;;30.80;100.00;101049.09;5021425;28;51109;-48
2022/05/12 04:40:44;;;;;;;;;6.00;4.25;;;;;30.94;100.00;101078.16;5010280;28;51110;-48
2022/05/12 04:43:29;;;;;;;;;5.25;3.50;;;;;30.87;100.00;101069.56;5001437;28;51056;-48
2022/05/12 04:46:13;;;;;;;;;7.50;4.25;;;;;30.91;100.00;101077.44;5002056;28;51070;-47
2022/05/12 04:48:58;;;;;;;;;3.75;3.50;;;;;30.90;100.00;101086.66;5001797;28;51263;-47
2022/05/12 04:51:42;;;;;;;;;6.50;2.75;;;;;30.88;100.00;101093.31;5020590;28;51435;-48
2022/05/12 04:54:27;;;;;;;;;3.75;3.75;;;;;30.89;100.00;101100.53;5021205;28;51013;-50
2022/05/12 04:57:12;;;;;;;;;3.25;3.25;;;;;30.87;100.00;101094.31;5013807;28;51185;-48
2022/05/12 04:59:56;;;;;;;;;4.50;2.50;;;;;30.85;100.00;101099.03;5010925;28;51432;-49
2022/05/12 05:02:41;;;;;;;;;3.25;3.25;;;;;30.82;100.00;101097.44;5001389;28;51127;-48
2022/05/12 05:05:26;;;;;;;;;3.75;3.75;;;;;30.85;100.00;101101.78;5019031;28;51112;-47
2022/05/12 05:08:16;;;;;;;;;3.00;3.00;;;;;30.86;100.00;101120.03;5013630;28;51092;-49
2022/05/12 05:11:06;;;;;;;;;6.75;4.00;;;;;30.86;100.00;101120.03;5003109;28;51126;-48
2022/05/12 05:13:51;;;;;;;;;4.50;3.00;;;;;30.84;100.00;101116.53;5007495;28;51069;-48
2022/05/12 05:16:35;;;;;;;;;5.75;4.25;;;;;30.80;100.00;101112.28;5001007;28;51242;-49
2022/05/12 05:19:20;;;;;;;;;5.25;2.50;;;;;30.74;100.00;101114.56;5017195;28;51148;-46
2022/05/12 05:22:04;;;;;;;;;5.25;3.50;;;;;30.72;100.00;101124.78;5020738;28;51074;-46
2022/05/12 05:24:48;;;;;;;;;7.75;3.00;;;;;30.71;100.00;101124.94;5008324;28;51536;-47
2022/05/12 05:27:33;;;;;;;;;6.00;5.00;;;;;30.73;100.00;101136.66;5000792;28;51180;-48
2022/05/12 05:30:20;;;;;;;;;5.25;5.25;;;;;30.76;100.00;101144.63;5007045;28;51133;-48
2022/05/12 05:33:06;;;;;;;;;5.25;4.00;;;;;30.77;100.00;101146.38;5006787;28;51177;-47
2022/05/12 05:35:50;;;;;;;;;5.25;3.50;;;;;30.74;100.00;101155.75;5019425;28;51144;-47
2022/05/12 05:38:35;;;;;;;;;2.50;2.50;;;;;30.78;100.00;101169.25;5010548;28;51153;-48
2022/05/12 05:41:19;;;;;;;;;6.00;5.00;;;;;30.79;100.00;101171.00;5000843;28;51194;-48
2022/05/12 05:44:04;;;;;;;;;6.25;5.00;;;;;30.79;100.00;101166.34;5014047;28;51097;-48
2022/05/12 05:46:48;;;;;;;;;10.50;8.75;;;;;30.86;100.00;101178.56;5010360;28;51104;-47
2022/05/12 05:49:33;;;;;;;;;6.50;5.50;;;;;30.90;100.00;101180.06;5015545;28;51062;-51
2022/05/12 05:55:21;;;;;;;;;5.75;4.00;;;;;30.96;100.00;101189.69;5014459;28;51207;-47
2022/05/12 05:58:06;;;;;;;;;11.50;8.00;;;;;30.99;100.00;101183.06;5009887;28;50991;-45
2022/05/12 06:00:51;;;;;;;;;7.00;7.00;;;;;31.01;100.00;101187.41;4999982;28;51095;-46
2022/05/12 06:03:36;;;;;;;;;8.50;7.00;;;;;31.06;100.00;101192.53;4999830;28;51545;-51
2022/05/12 06:06:24;;;;;;;;;7.25;5.00;;;;;31.05;100.00;101188.06;5015156;28;50951;-50
2022/05/12 06:09:08;;;;;;;;;7.75;5.00;;;;;31.08;100.00;101198.75;5018185;28;51173;-51
2022/05/12 06:11:53;;;;;;;;;9.50;5.00;;;;;31.11;100.00;101197.66;5010040;28;51245;-53
2022/05/12 06:14:38;;;;;;;;;10.50;4.75;;;;;31.10;100.00;101206.91;5006612;28;51439;-51
2022/05/12 06:17:23;;;;;;;;;9.50;5.00;;;;;31.17;100.00;101222.75;5014786;28;51066;-50
2022/05/12 06:20:12;;;;;;;;;6.00;4.50;;;;;31.15;100.00;101230.28;5017368;28;51211;-54
2022/05/12 06:22:56;;;;;;;;;2.00;2.00;;;;;31.19;100.00;101239.16;5001262;28;51082;-53
2022/05/12 06:25:41;;;;;;;;;8.00;5.00;;;;;31.18;100.00;101243.75;5000083;28;51189;-51
2022/05/12 06:28:25;;;;;;;;;9.00;8.00;;;;;31.24;100.00;101241.50;5012598;28;51580;-52
2022/05/12 06:31:10;;;;;;;;;11.25;6.75;;;;;31.27;100.00;101247.63;5018621;28;51484;-54
2022/05/12 06:33:55;;;;;;;;;5.50;4.25;;;;;31.29;100.00;101248.38;5018386;28;51058;-52
2022/05/12 06:36:41;;;;;;;;;6.75;5.00;;;;;31.36;100.00;101241.34;5019049;28;51188;-56
2022/05/12 06:39:26;;;;;;;;;5.75;4.50;;;;;31.42;100.00;101256.44;5018337;28;51223;-53
2022/05/12 06:42:12;;;;;;;;;7.00;5.50;;;;;31.47;100.00;101261.56;5001325;28;51156;-51
2022/05/12 06:44:58;;;;;;;;;5.25;4.00;;;;;31.53;100.00;101261.06;4999404;28;51385;-54
2022/05/12 06:47:50;;;;;;;;;5.75;4.25;;;;;31.60;100.00;101269.63;5016584;28;51304;-53
2022/05/12 06:50:35;;;;;;;;;5.25;4.25;;;;;31.68;100.00;101256.16;5022759;28;51428;-55
2022/05/12 06:53:19;;;;;;;;;9.00;5.00;;;;;31.79;100.00;101263.47;5022493;28;51357;-54
2022/05/12 06:56:04;;;;;;;;;6.50;5.75;;;;;31.90;100.00;101266.16;5009167;28;51399;-54
2022/05/12 06:58:52;;;;;;;;;11.50;7.75;;;;;32.06;100.00;101270.38;5022670;28;51196;-53
2022/05/12 07:01:37;;;;;;;;;11.00;8.00;;;;;32.28;100.00;101278.50;5023008;28;51176;-55
2022/05/12 07:04:24;;;;;;;;;8.75;5.50;;;;;32.41;100.00;101291.19;5021950;28;51466;-50
2022/05/12 07:07:08;;;;;;;;;6.00;6.00;;;;;32.53;100.00;101295.63;5023094;28;51138;-53
2022/05/12 07:09:54;;;;;;;;;10.00;8.00;;;;;33.11;100.00;101310.72;5022782;28;51053;-54
2022/05/12 07:12:41;;;;;;;;;7.75;4.50;;;;;34.23;100.00;101300.44;4988195;28;51192;-52
2022/05/12 07:15:28;;;;;;;;;5.25;3.25;;;;;34.72;100.00;101294.84;5011500;28;51137;-52
2022/05/12 07:18:14;;;;;;;;;3.75;2.50;;;;;35.18;100.00;101311.53;5003014;28;52169;-52
2022/05/12 07:27:06;;;;;;;;;8.00;4.25;;;;;37.12;100.00;101344.28;4997023;28;51165;-54
2022/05/12 07:29:51;;;;;;;;;4.00;4.00;;;;;37.59;100.00;101338.25;5011631;28;51200;-55
2022/05/12 07:32:37;;;;;;;;;4.50;3.25;;;;;37.74;100.00;101345.91;5021698;28;51216;-55
2022/05/12 07:35:21;;;;;;;;;3.25;2.50;;;;;37.61;100.00;101351.97;5020712;28;51172;-54
2022/05/12 07:38:06;;;;;;;;;2.75;2.50;;;;;37.00;100.00;101363.16;5015584;28;51129;-50
2022/05/12 07:40:51;;;;;;;;;6.50;4.00;;;;;36.88;100.00;101365.31;5015127;28;51239;-56
2022/05/12 07:43:36;;;;;;;;;3.75;2.50;;;;;36.46;100.00;101377.13;5021267;28;51135;-55
2022/05/12 07:46:23;;;;;;;;;3.50;3.00;;;;;35.87;100.00;101366.47;5021180;28;51454;-52
2022/05/12 07:49:08;;;;;;;;;5.25;1.00;;;;;35.53;100.00;101371.66;5022072;28;51390;-51
2022/05/12 07:51:52;;;;;;;;;5.50;3.75;;;;;35.26;100.00;101378.00;5021597;28;51046;-53
2022/05/12 07:54:37;;;;;;;;;7.75;3.50;;;;;35.24;100.00;101371.75;5021671;28;51551;-52
2022/05/12 07:57:22;;;;;;;;;3.25;3.25;;;;;36.24;100.00;101387.66;5021215;28;51173;-55
2022/05/12 08:00:08;;;;;;;;;1.50;1.50;;;;;37.20;100.00;101400.69;5018200;28;51535;-52
2022/05/12 08:02:52;;;;;;;;;2.25;2.25;;;;;37.24;100.00;101398.47;5010139;28;51139;-51
2022/05/12 08:05:38;;;;;;;;;3.25;3.25;;;;;37.01;100.00;101417.59;5021861;28;51093;-51
2022/05/12 08:08:22;;;;;;;;;5.25;1.25;;;;;36.87;100.00;101408.78;5021999;28;51057;-53
2022/05/12 08:11:07;;;;;;;;;3.75;1.50;;;;;36.59;100.00;101408.06;5020680;28;51133;-51
2022/05/12 08:13:51;;;;;;;;;2.25;2.25;;;;;36.04;100.00;101417.41;5018066;28;51251;-53
2022/05/12 08:16:37;;;;;;;;;3.25;2.25;;;;;35.59;100.00;101402.50;5017559;28;51370;-52
2022/05/12 08:19:22;;;;;;;;;3.00;1.50;;;;;35.36;100.00;101403.75;5019958;28;51992;-55
2022/05/12 08:22:07;;;;;;;;;4.00;2.00;;;;;35.40;100.00;101406.22;5020888;28;51570;-50
2022/05/12 08:24:52;;;;;;;;;6.00;3.75;;;;;35.53;100.00;101407.63;5005836;28;51217;-52
2022/05/12 08:27:37;;;;;;;;;3.50;3.25;;;;;35.73;100.00;101406.66;5017710;28;51165;-53
2022/05/12 08:30:21;;;;;;;;;5.00;2.75;;;;;35.66;100.00;101415.56;5021736;28;51045;-49
2022/05/12 08:33:06;;;;;;;;;4.25;3.25;;;;;35.41;100.00;101413.50;5020127;28;51579;-53
2022/05/12 08:35:51;;;;;;;;;3.25;2.50;;;;;35.10;100.00;101411.84;5020928;28;51419;-50
2022/05/12 08:38:40;;;;;;;;;4.75;3.25;;;;;34.88;100.00;101413.06;5021058;28;51190;-53
2022/05/12 08:41:43;;;;;;;;;1.00;1.00;;;;;34.88;100.00;101422.22;5020693;28;51086;-51
2022/05/12 08:44:31;;;;;;;;;1.50;1.00;;;;;34.86;100.00;101423.38;5009434;28;51424;-54
2022/05/12 08:47:19;;;;;;;;;3.50;2.00;;;;;34.91;100.00;101421.09;5003246;28;51218;-54
2022/05/12 08:50:09;;;;;;;;;4.25;2.25;;;;;35.20;100.00;101426.53;5020930;28;51195;-51
2022/05/12 08:52:57;;;;;;;;;3.00;1.50;;;;;35.47;100.00;101424.84;5000398;28;51559;-53
2022/05/12 08:55:59;;;;;;;;;2.25;1.75;;;;;35.45;100.00;101409.44;4999491;28;51413;-56
2022/05/12 08:58:44;;;;;;;;;2.25;2.25;;;;;35.46;100.00;101420.34;5001095;28;51342;-55
2022/05/12 09:01:36;;;;;;;;;4.75;2.00;;;;;35.57;100.00;101424.78;5006676;28;51533;-51
2022/05/12 09:04:42;;;;;;;;;1.75;1.75;;;;;35.57;100.00;101427.56;5007102;28;51194;-53
2022/05/12 09:07:44;;;;;;;;;3.50;2.00;;;;;35.46;100.00;101436.06;5001369;28;51201;-53
2022/05/12 09:10:33;;;;;;;;;3.25;1.25;;;;;35.36;100.00;101425.88;5017040;28;51486;-52
2022/05/12 09:13:25;;;;;;;;;5.00;3.00;;;;;35.38;100.00;101429.38;5018452;28;51243;-54
2022/05/12 09:16:39;;;;;;;;;1.00;1.00;;;;;35.35;100.00;101432.44;5019510;28;51160;-54
2022/05/12 09:19:25;;;;;;;;;5.25;2.00;;;;;35.17;100.00;101431.50;5018633;28;51422;-51
2022/05/12 09:22:10;;;;;;;;;2.00;2.00;;;;;35.09;100.00;101434.13;5020089;28;51152;-51
2022/05/12 09:24:55;;;;;;;;;2.00;1.50;;;;;35.04;100.00;101432.69;5003333;28;51176;-54
2022/05/12 09:27:44;;;;;;;;;4.25;2.75;;;;;35.03;100.00;101430.94;5019988;28;51441;-54
2022/05/12 09:30:34;;;;;;;;;2.50;1.00;;;;;35.10;100.00;101433.13;5000667;28;51141;-54
2022/05/12 09:33:29;;;;;;;;;5.00;1.75;;;;;35.22;100.00;101442.97;5020363;28;51121;-52
2022/05/12 09:36:16;;;;;;;;;5.00;2.00;;;;;35.19;100.00;101410.09;5020265;28;51188;-54
2022/05/12 09:39:01;;;;;;;;;2.00;2.00;;;;;35.35;100.00;101426.03;5019940;28;51180;-53
2022/05/12 09:41:46;;;;;;;;;1.75;1.75;;;;;35.42;100.00;101421.66;5019851;28;51098;-53
2022/05/12 09:44:32;;;;;;;;;4.75;3.75;;;;;35.46;100.00;101420.34;5019955;28;51279;-53
2022/05/12 09:47:17;;;;;;;;;2.25;2.25;;;;;35.55;100.00;101423.22;5020517;28;51162;-55
2022/05/12 09:50:20;;;;;;;;;2.25;2.25;;;;;35.66;100.00;101429.41;5020181;28;51461;-54
2022/05/12 09:53:08;;;;;;;;;5.75;2.25;;;;;35.66;100.00;101434.06;5019996;28;51326;-53
2022/05/12 09:56:07;;;;;;;;;3.25;2.75;;;;;35.60;100.00;101426.41;5012880;28;51082;-53
2022/05/12 09:59:13;;;;;;;;;6.50;1.75;;;;;35.66;100.00;101428.53;4998230;28;51131;-55
2022/05/12 10:02:04;;;;;;;;;2.00;1.25;;;;;35.70;100.00;101426.31;4999959;28;51103;-55
2022/05/12 10:08:02;;;;;;;;;0.25;0.25;;;;;35.47;100.00;101413.78;4999797;28;51391;-51
2022/05/12 10:10:53;;;;;;;;;5.75;2.75;;;;;35.43;100.00;101417.00;5017984;28;51057;-56
2022/05/12 10:13:53;;;;;;;;;2.00;2.00;;;;;35.38;100.00;101406.38;5017343;28;51018;-54
2022/05/12 10:16:38;;;;;;;;;5.75;2.75;;;;;35.46;100.00;101403.75;5019178;28;51502;-53
2022/05/12 10:19:22;;;;;;;;;1.00;0.50;;;;;35.57;100.00;101397.09;5004199;28;51570;-55
2022/05/12 10:22:37;;;;;;;;;6.75;2.00;;;;;35.53;100.00;101395.69;5018325;28;51237;-51
2022/05/12 10:26:09;;;;;;;;;1.25;1.25;;;;;35.42;100.00;101393.13;5000409;28;51138;-53
2022/05/12 10:30:43;;;;;;;;;5.25;2.00;;;;;35.33;100.00;101403.19;4358437;32;51200;-49
2022/05/12 10:33:53;;;;;;;;;1.50;1.50;;;;;35.31;100.00;101400.56;5097868;27;51161;-48
2022/05/12 10:36:41;;;;;;;;;2.50;1.50;;;;;35.29;100.00;101374.97;5087024;27;51311;-50
2022/05/12 10:39:50;;;;;;;;;2.50;2.00;;;;;35.41;100.00;101369.22;5074671;27;51362;-50
2022/05/12 10:42:49;;;;;;;;;3.25;2.00;;;;;35.67;100.00;101363.84;5076771;27;51102;-48
2022/05/12 10:45:55;;;;;;;;;4.00;3.00;;;;;35.79;100.00;101376.44;5061208;28;51413;-52
2022/05/12 10:48:49;;;;;;;;;3.75;1.25;;;;;35.92;100.00;101389.03;5093546;27;51150;-50
2022/05/12 10:51:49;;;;;;;;;2.75;2.75;;;;;36.04;100.00;101384.16;5096505;27;51148;-50
2022/05/12 10:55:10;;;;;;;;;4.25;2.00;;;;;36.06;100.00;101388.50;5097268;27;51492;-49
2022/05/12 10:58:26;;;;;;;;;3.75;1.50;;;;;35.88;100.00;101376.53;5077220;27;51450;-47
2022/05/12 11:01:34;;;;;;;;;4.25;2.25;;;;;35.42;100.00;101379.31;5093548;27;51177;-49
2022/05/12 11:04:36;;;;;;;;;2.00;2.00;;;;;34.98;100.00;101363.28;5075803;28;51486;-51
2022/05/12 11:07:32;;;;;;;;;3.75;1.50;;;;;34.97;100.00;101358.81;5092201;27;51075;-52
2022/05/12 11:10:28;;;;;;;;;2.50;2.50;;;;;35.12;100.00;101368.34;5064074;28;51192;-49
2022/05/12 11:13:32;;;;;;;;;5.00;3.00;;;;;35.24;100.00;101365.38;5059619;28;51154;-49
2022/05/12 11:16:24;;;;;;;;;1.50;1.50;;;;;35.31;100.00;101363.72;5058157;27;51087;-53
2022/05/12 11:19:18;;;;;;;;;2.00;2.00;;;;;35.43;100.00;101361.69;5070351;27;51478;-54
2022/05/12 11:22:30;;;;;;;;;4.75;3.25;;;;;35.35;100.00;101354.09;5076358;28;51489;-50
2022/05/12 11:25:43;;;;;;;;;2.25;1.75;;;;;35.22;100.00;101360.00;5076136;28;51020;-52
2022/05/12 11:32:04;;;;;;;;;2.00;2.00;;;;;35.13;100.00;101345.19;5066148;28;51394;-51
2022/05/12 11:34:54;;;;;;;;;3.75;3.25;;;;;35.07;100.00;101337.50;5075681;28;51764;-51
2022/05/12 11:37:39;;;;;;;;;8.25;3.25;;;;;34.98;100.00;101344.81;5090772;27;51143;-48
2022/05/12 11:40:48;;;;;;;;;3.50;3.00;;;;;34.97;100.00;101339.44;5068603;27;51232;-53
2022/05/12 11:46:53;;;;;;;;;2.75;1.25;;;;;34.87;100.00;101311.78;5061654;28;51349;-51
2022/05/12 11:49:43;;;;;;;;;3.00;1.25;;;;;34.80;100.00;101286.66;5048440;28;51154;-49
2022/05/12 11:52:58;;;;;;;;;4.00;2.00;;;;;34.76;100.00;101275.03;5062022;28;51155;-52
2022/05/12 11:56:01;;;;;;;;;3.25;2.00;;;;;34.94;100.00;101273.38;5062317;28;51111;-49
2022/05/12 11:58:47;;;;;;;;;9.00;3.00;;;;;34.89;100.00;101260.00;5061530;28;51512;-52
2022/05/12 12:01:38;;;;;;;;;3.50;2.50;;;;;34.82;100.00;101258.84;5062215;28;51169;-53
2022/05/12 12:04:52;;;;;;;;;2.75;1.50;;;;;34.79;100.00;101257.25;5061807;28;51370;-50
2022/05/12 12:07:37;;;;;;;;;3.75;2.25;;;;;34.73;100.00;101242.16;5055028;27;51868;-53
2022/05/12 12:10:27;;;;;;;;;1.75;0.00;;;;;34.71;100.00;101238.66;5065265;27;51091;-51
2022/05/12 12:13:35;;;;;;;;;1.75;1.75;;;;;34.47;100.00;101222.63;5072220;27;51176;-52
2022/05/12 12:16:23;;;;;;;;;4.00;2.00;;;;;34.20;100.00;101220.66;5061667;28;51074;-50
2022/05/12 12:19:07;;;;;;;;;3.00;3.00;;;;;34.00;100.00;101209.66;5061042;28;51079;-56
2022/05/12 12:22:20;;;;;;;;;6.25;2.50;;;;;33.92;100.00;101215.91;5059109;27;51158;-51
2022/05/12 12:25:40;;;;;;;;;3.75;3.75;;;;;33.84;100.00;101208.34;5057031;27;51189;-52
2022/05/12 12:28:33;;;;;;;;;6.00;2.00;;;;;33.98;100.00;101218.09;5060014;28;51203;-53
2022/05/12 12:31:29;;;;;;;;;0.25;0.25;;;;;33.87;100.00;101212.72;5070253;27;51347;-51
2022/05/12 12:34:17;;;;;;;;;2.25;2.00;;;;;33.82;100.00;101213.13;5055573;27;51226;-51
2022/05/12 12:37:05;;;;;;;;;3.00;1.75;;;;;33.76;100.00;101199.91;5061299;28;51099;-51
2022/05/12 12:39:50;;;;;;;;;2.25;2.00;;;;;33.74;100.00;101185.41;5061504;27;51417;-50
2022/05/12 12:42:45;;;;;;;;;3.50;1.25;;;;;33.78;100.00;101186.84;5061312;28;51187;-53
2022/05/12 12:45:29;;;;;;;;;3.00;2.25;;;;;33.76;100.00;101180.59;5058954;28;51399;-51
2022/05/12 12:48:18;;;;;;;;;4.00;2.00;;;;;33.80;100.00;101172.91;5061042;28;51551;-49
2022/05/12 12:51:03;;;;;;;;;3.25;1.50;;;;;33.77;100.00;101174.06;5070559;27;51525;-48
2022/05/12 12:56:51;;;;;;;;;3.50;2.00;;;;;33.86;100.00;101174.22;5077021;27;51572;-53
2022/05/12 12:59:41;;;;;;;;;4.00;2.00;;;;;33.96;100.00;101172.34;5066020;27;51204;-53
2022/05/12 13:02:32;;;;;;;;;4.25;2.00;;;;;33.99;100.00;101166.50;5100236;27;51528;-52
2022/05/12 13:05:22;;;;;;;;;5.00;2.00;;;;;34.01;100.00;101167.22;5060085;28;51324;-52
2022/05/12 13:08:28;;;;;;;;;3.00;2.00;;;;;34.02;100.00;101157.91;5060283;28;51057;-53
2022/05/12 13:11:21;;;;;;;;;2.50;2.00;;;;;33.96;100.00;101150.25;5067605;27;51139;-54
2022/05/12 13:14:08;;;;;;;;;4.00;3.00;;;;;33.94;100.00;101150.38;5080346;27;51098;-51
2022/05/12 13:16:53;;;;;;;;;4.00;1.50;;;;;33.95;100.00;101137.47;5076223;27;51479;-54
2022/05/12 13:19:39;;;;;;;;;7.50;3.00;;;;;33.99;100.00;101133.38;5061096;27;51133;-52
2022/05/12 13:22:36;;;;;;;;;2.75;2.75;;;;;34.07;100.00;101128.00;5080750;27;51173;-52